Upstream stations:
Downstream station:
SHEF ID: MRIT2 Lake Meredith
STATION TYPE: RESERVOIR
Flood Pool: Bottom = 2941.30, Top = 2965.00
PRECIP ELEVATION STORAGE INFLOW RELEASE WIND-DIRWIND-SPEED
in ft ac-ft cfs cfs deg mph
Ccp-Rev Ccp-Rev Ccp-Rev Rev-Regi Rev-Regi Ccp-Rev Ccp-Rev
(US/Central)
03/20 00:00 ---- 2885.56 217787 0 0 ---- ----
03/20 01:00 ---- 2885.56 217787 0 0 ---- ----
03/20 02:00 ---- 2885.45 217026 0 0 ---- ----
03/20 03:00 ---- 2885.54 217648 55 0 ---- ----
03/20 04:00 ---- 2885.52 217509 164 0 ---- ----
03/20 05:00 ---- 2885.53 217578 164 0 ---- ----
03/20 06:00 ---- 2885.55 217717 228 0 ---- ----
03/20 07:00 ---- 2885.51 217439 383 0 ---- ----
03/20 08:00 ---- 2885.52 217509 329 0 ---- ----
03/20 09:00 ---- 2885.55 217717 520 0 ---- ----
03/20 10:00 ---- 2885.55 217717 520 0 ---- ----
03/20 11:00 ---- 2885.60 218065 456 0 ---- ----
03/20 12:00 ---- 2885.61 218134 300 0 ---- ----
03/20 13:00 ---- 2885.61 218134 300 0 ---- ----
03/20 14:00 ---- 2885.62 218203 0 0 ---- ----
03/20 15:00 ---- 2885.63 218273 0 0 ---- ----
03/20 16:00 ---- 2885.59 217995 0 0 ---- ----
03/20 17:00 ---- 2885.61 218134 0 0 ---- ----
03/20 18:00 ---- 2885.60 218065 0 0 ---- ----
03/20 19:00 ---- 2885.61 218134 0 0 ---- ----
03/20 20:00 ---- 2885.58 217926 0 0 ---- ----
03/20 21:00 ---- 2885.59 217995 0 0 ---- ----
03/20 22:00 ---- 2885.59 217995 0 0 ---- ----
03/20 23:00 ---- ---- ---- ---- ---- ---- ----